createdAt,value
2018-12-14T00:02:54.186Z,7.60
2018-12-14T00:05:21.360Z,8.00
2018-12-14T00:07:48.433Z,7.67
2018-12-14T00:10:15.630Z,7.50
2018-12-14T00:12:42.752Z,7.87
2018-12-14T00:15:09.885Z,7.30
2018-12-14T00:17:37.624Z,7.20
2018-12-14T00:20:06.959Z,7.40
2018-12-14T00:22:34.061Z,7.90
2018-12-14T00:25:01.191Z,8.00
2018-12-14T00:27:28.559Z,7.83
2018-12-14T00:29:56.089Z,7.20
2018-12-14T00:32:23.359Z,7.57
2018-12-14T00:34:50.490Z,7.50
2018-12-14T00:37:17.672Z,7.17
2018-12-14T00:39:44.769Z,7.30
2018-12-14T00:42:11.894Z,7.83
2018-12-14T00:44:39.023Z,7.77
2018-12-14T00:47:07.389Z,8.53
2018-12-14T00:49:34.814Z,6.77
2018-12-14T00:52:01.912Z,7.13
2018-12-14T00:54:29.059Z,6.90
2018-12-14T00:56:56.115Z,7.07
2018-12-14T00:59:23.191Z,7.80
2018-12-14T01:01:50.292Z,6.77
2018-12-14T01:04:17.416Z,7.33
2018-12-14T01:06:44.497Z,7.20
2018-12-14T01:09:11.601Z,6.57
2018-12-14T01:11:38.748Z,7.57
2018-12-14T01:14:06.027Z,7.27
2018-12-14T01:16:33.134Z,7.23
2018-12-14T01:19:00.240Z,7.57
2018-12-14T01:21:27.340Z,7.60
2018-12-14T01:23:54.495Z,7.57
2018-12-14T01:26:21.579Z,7.80
2018-12-14T01:28:48.887Z,7.10
2018-12-14T01:31:16.010Z,8.10
2018-12-14T01:33:43.260Z,7.20
2018-12-14T01:36:10.395Z,7.30
2018-12-14T01:38:37.560Z,8.00
2018-12-14T01:41:04.635Z,7.77
2018-12-14T01:43:31.697Z,7.30
2018-12-14T01:45:58.751Z,7.20
2018-12-14T01:48:25.821Z,8.20
2018-12-14T01:50:53.579Z,7.00
2018-12-14T01:53:20.697Z,7.30
2018-12-14T01:55:47.786Z,7.77
2018-12-14T01:58:14.859Z,7.30
2018-12-14T02:00:41.974Z,8.10
2018-12-14T02:03:09.063Z,7.73
2018-12-14T02:05:36.140Z,8.20
2018-12-14T02:08:03.228Z,7.47
2018-12-14T02:10:30.340Z,7.90
2018-12-14T02:12:58.051Z,7.13
2018-12-14T02:15:25.108Z,8.10
2018-12-14T02:17:54.094Z,8.17
2018-12-14T02:20:21.156Z,7.30
2018-12-14T02:22:48.237Z,7.10
2018-12-14T02:25:15.328Z,7.70
2018-12-14T02:27:42.538Z,7.40
2018-12-14T02:30:21.495Z,7.90
2018-12-14T02:32:48.731Z,8.17
2018-12-14T02:35:15.805Z,7.77
2018-12-14T02:37:43.385Z,7.93
2018-12-14T02:40:10.502Z,8.20
2018-12-14T02:42:37.604Z,7.97
2018-12-14T02:45:05.036Z,8.43
2018-12-14T02:47:33.351Z,8.17
2018-12-14T02:50:00.489Z,8.07
2018-12-14T02:52:27.764Z,8.60
2018-12-14T02:54:55.078Z,8.40
2018-12-14T02:57:22.190Z,7.23
2018-12-14T02:59:49.807Z,8.60
2018-12-14T03:02:16.995Z,9.17
2018-12-14T03:04:44.075Z,7.90
2018-12-14T03:07:11.149Z,8.23
2018-12-14T03:09:38.249Z,8.70
2018-12-14T03:12:06.280Z,8.20
2018-12-14T03:14:33.449Z,8.60
2018-12-14T03:17:00.648Z,8.00
2018-12-14T03:19:27.737Z,7.77
2018-12-14T03:21:54.842Z,8.47
2018-12-14T03:24:22.061Z,7.77
2018-12-14T03:26:49.217Z,7.80
2018-12-14T03:29:16.290Z,8.80
2018-12-14T03:31:44.256Z,8.10
2018-12-14T03:34:11.303Z,8.10
2018-12-14T03:36:38.851Z,7.80
2018-12-14T03:39:05.995Z,8.17
2018-12-14T03:41:33.147Z,7.67
2018-12-14T03:44:00.229Z,8.07
2018-12-14T03:46:27.347Z,8.20
2018-12-14T03:48:55.267Z,8.47
2018-12-14T03:51:27.681Z,8.50
2018-12-14T03:53:54.811Z,8.60
2018-12-14T03:56:21.940Z,8.20
2018-12-14T03:58:49.079Z,8.10
2018-12-14T04:01:16.189Z,7.87
2018-12-14T04:03:43.392Z,7.70
2018-12-14T04:06:11.362Z,8.30
2018-12-14T04:08:39.004Z,8.20
2018-12-14T04:11:06.112Z,8.13
2018-12-14T04:13:33.323Z,8.30
2018-12-14T04:16:00.515Z,8.17
2018-12-14T04:18:27.937Z,7.40
2018-12-14T04:20:55.065Z,8.07
2018-12-14T04:23:22.180Z,8.33
2018-12-14T04:25:49.264Z,9.10
2018-12-14T04:28:16.374Z,8.07
2018-12-14T04:30:43.514Z,8.93
2018-12-14T04:33:10.723Z,8.63
2018-12-14T04:35:37.929Z,8.10
2018-12-14T04:38:05.163Z,8.03
2018-12-14T04:40:32.283Z,8.57
2018-12-14T04:42:59.400Z,9.47
2018-12-14T04:45:26.552Z,8.10
2018-12-14T04:47:53.664Z,8.60
2018-12-14T04:50:20.813Z,8.70
2018-12-14T04:52:47.933Z,9.30
2018-12-14T04:55:15.051Z,9.10
2018-12-14T04:57:42.176Z,10.80
2018-12-14T05:00:09.348Z,8.90
2018-12-14T05:02:36.541Z,10.37
2018-12-14T05:05:03.612Z,9.33
2018-12-14T05:07:30.710Z,9.87
2018-12-14T05:09:57.824Z,9.30
2018-12-14T05:12:24.931Z,10.30
2018-12-14T05:14:52.373Z,8.97
2018-12-14T05:17:19.768Z,9.00
2018-12-14T05:19:46.844Z,10.07
2018-12-14T05:22:13.944Z,8.63
2018-12-14T05:24:41.082Z,9.00
2018-12-14T05:27:08.638Z,9.23
2018-12-14T05:29:36.523Z,9.33
2018-12-14T05:32:03.608Z,9.43
2018-12-14T05:34:30.894Z,8.63
2018-12-14T05:36:58.884Z,9.73
2018-12-14T05:39:25.966Z,12.03
2018-12-14T05:41:53.020Z,10.10
2018-12-14T05:44:20.210Z,10.10
2018-12-14T05:46:48.058Z,10.00
2018-12-14T05:49:15.105Z,10.20
2018-12-14T05:51:42.247Z,10.00
2018-12-14T05:54:09.476Z,10.10
2018-12-14T05:56:36.713Z,9.87
2018-12-14T05:59:03.796Z,10.13
2018-12-14T06:01:30.906Z,9.90
2018-12-14T06:03:58.584Z,9.80
2018-12-14T06:06:25.647Z,8.60
2018-12-14T06:08:52.801Z,9.90
2018-12-14T06:11:19.964Z,10.13
2018-12-14T06:13:47.093Z,9.50
2018-12-14T06:16:20.884Z,10.87
2018-12-14T06:18:48.059Z,10.17
2018-12-14T06:21:15.142Z,9.40
2018-12-14T06:23:42.291Z,9.60
2018-12-14T06:26:09.461Z,9.73
2018-12-14T06:28:36.658Z,11.10
2018-12-14T06:31:03.774Z,9.40
2018-12-14T06:33:30.864Z,9.37
2018-12-14T06:35:58.075Z,10.60
2018-12-14T06:38:25.199Z,9.93
2018-12-14T06:40:52.276Z,10.10
2018-12-14T06:43:19.410Z,9.73
2018-12-14T06:45:46.474Z,10.57
2018-12-14T06:48:13.582Z,10.10
2018-12-14T06:50:40.671Z,9.43
2018-12-14T06:53:08.334Z,9.40
2018-12-14T06:55:35.386Z,10.73
2018-12-14T06:58:02.638Z,9.63
2018-12-14T07:00:29.975Z,10.50
2018-12-14T07:02:57.347Z,9.43
2018-12-14T07:05:24.476Z,9.67
2018-12-14T07:07:51.570Z,10.70
2018-12-14T07:10:18.714Z,10.10
2018-12-14T07:12:45.847Z,10.10
2018-12-14T07:15:13.088Z,9.63
2018-12-14T07:17:40.244Z,10.07
2018-12-14T07:20:07.300Z,10.03
2018-12-14T07:22:34.603Z,10.37
2018-12-14T07:25:02.689Z,10.27
2018-12-14T07:27:29.800Z,10.17
2018-12-14T07:29:57.221Z,10.03
2018-12-14T07:32:24.309Z,10.13
2018-12-14T07:34:51.554Z,11.50
2018-12-14T07:37:19.472Z,10.80
2018-12-14T07:39:46.695Z,11.00
2018-12-14T07:42:13.873Z,10.03
2018-12-14T07:44:41.150Z,10.10
2018-12-14T07:47:11.673Z,9.60
2018-12-14T07:49:38.018Z,10.57
2018-12-14T07:52:05.088Z,11.13
2018-12-14T07:54:32.234Z,9.80
2018-12-14T07:56:59.293Z,10.40
2018-12-14T07:59:26.471Z,9.20
2018-12-14T08:01:54.505Z,10.67
2018-12-14T08:04:21.819Z,8.60
2018-12-14T08:06:49.029Z,9.77
2018-12-14T08:09:17.141Z,10.47
2018-12-14T08:11:44.356Z,9.30
2018-12-14T08:14:11.670Z,9.80
2018-12-14T08:16:38.859Z,9.50
2018-12-14T08:19:06.485Z,9.80
2018-12-14T08:21:33.668Z,9.03
2018-12-14T08:24:02.103Z,9.40
2018-12-14T08:26:29.815Z,8.93
2018-12-14T08:28:56.949Z,9.63
2018-12-14T08:31:24.032Z,10.40
2018-12-14T08:33:51.800Z,9.90
2018-12-14T08:36:18.823Z,10.80
2018-12-14T08:38:46.096Z,10.77
2018-12-14T08:41:13.224Z,10.37
2018-12-14T08:43:41.644Z,9.70
2018-12-14T08:46:09.218Z,10.23
2018-12-14T08:48:37.023Z,9.70
2018-12-14T08:51:04.284Z,9.40
2018-12-14T08:53:31.787Z,10.10
2018-12-14T08:55:58.963Z,9.67
2018-12-14T08:58:26.039Z,10.00
2018-12-14T09:00:53.776Z,9.10
2018-12-14T09:03:21.637Z,10.13
2018-12-14T09:05:48.788Z,9.83
2018-12-14T09:08:15.870Z,9.63
2018-12-14T09:10:42.962Z,9.33
2018-12-14T09:13:10.063Z,10.80
2018-12-14T09:15:37.159Z,9.43
2018-12-14T09:18:04.352Z,10.90
2018-12-14T09:20:31.479Z,9.33
2018-12-14T09:22:58.809Z,10.30
2018-12-14T09:25:25.923Z,10.20
2018-12-14T09:27:53.009Z,9.90
2018-12-14T09:30:20.137Z,10.57
2018-12-14T09:32:47.319Z,9.63
2018-12-14T09:35:14.472Z,9.70
2018-12-14T09:37:41.670Z,9.83
2018-12-14T09:40:09.009Z,9.97
2018-12-14T09:42:36.118Z,10.23
2018-12-14T09:45:03.281Z,9.90
2018-12-14T09:47:31.039Z,10.30
2018-12-14T09:49:58.234Z,9.87
2018-12-14T09:52:25.406Z,10.17
2018-12-14T09:54:52.545Z,10.07
2018-12-14T09:57:21.272Z,12.33
2018-12-14T09:59:49.137Z,10.50
2018-12-14T10:02:16.190Z,9.93
2018-12-14T10:04:43.234Z,10.33
2018-12-14T10:07:10.450Z,9.93
2018-12-14T10:09:37.665Z,9.93
2018-12-14T10:12:04.845Z,10.33
2018-12-14T10:14:31.959Z,10.10
2018-12-14T10:16:59.070Z,9.60
2018-12-14T10:19:26.199Z,9.30
2018-12-14T10:21:53.391Z,11.03
2018-12-14T10:24:20.537Z,10.67
2018-12-14T10:26:47.679Z,11.40
2018-12-14T10:29:14.796Z,9.77
2018-12-14T10:31:41.930Z,9.43
2018-12-14T10:34:09.087Z,10.70
2018-12-14T10:36:36.338Z,9.63
2018-12-14T10:39:05.017Z,10.40
2018-12-14T10:41:33.026Z,11.13
2018-12-14T10:44:00.284Z,11.17
2018-12-14T10:46:27.382Z,10.30
2018-12-14T10:48:54.431Z,10.83
2018-12-14T10:51:21.535Z,10.57
2018-12-14T10:53:48.652Z,9.77
2018-12-14T10:56:15.752Z,10.37
2018-12-14T10:58:42.901Z,11.03
2018-12-14T11:01:16.331Z,11.23
2018-12-14T11:03:43.749Z,11.20
2018-12-14T11:06:11.292Z,10.37
2018-12-14T11:08:38.801Z,10.30
2018-12-14T11:11:06.917Z,10.57
2018-12-14T11:13:35.448Z,10.80
2018-12-14T11:16:02.663Z,11.00
2018-12-14T11:18:29.893Z,10.03
2018-12-14T11:20:57.148Z,10.33
2018-12-14T11:23:24.312Z,10.30
2018-12-14T11:25:51.499Z,8.97
2018-12-14T11:28:18.621Z,11.53
2018-12-14T11:30:45.842Z,10.33
2018-12-14T11:33:12.981Z,10.93
2018-12-14T11:35:40.117Z,10.10
2018-12-14T11:38:07.257Z,9.50
2018-12-14T11:40:34.557Z,9.30
2018-12-14T11:43:01.879Z,9.90
2018-12-14T11:45:29.202Z,10.77
2018-12-14T11:47:57.328Z,10.03
2018-12-14T11:50:24.465Z,11.13
2018-12-14T11:52:51.688Z,11.23
2018-12-14T11:55:18.893Z,9.73
2018-12-14T11:57:46.047Z,9.80
2018-12-14T12:00:13.898Z,9.90
2018-12-14T12:02:43.305Z,17.87
2018-12-14T12:05:10.376Z,9.57
2018-12-14T12:07:39.589Z,10.80
2018-12-14T12:10:09.775Z,10.33
2018-12-14T12:12:37.491Z,11.47
2018-12-14T12:15:04.765Z,11.33
2018-12-14T12:17:31.973Z,10.23
2018-12-14T12:19:59.099Z,9.80
2018-12-14T12:22:26.205Z,10.23
2018-12-14T12:24:53.361Z,10.50
2018-12-14T12:27:20.456Z,10.63
2018-12-14T12:29:47.564Z,11.10
2018-12-14T12:32:14.644Z,10.90
2018-12-14T12:34:41.881Z,12.40
2018-12-14T12:37:08.996Z,10.23
2018-12-14T12:39:36.120Z,10.30
2018-12-14T12:42:04.063Z,11.67
2018-12-14T12:44:33.639Z,10.40
2018-12-14T12:47:01.117Z,10.30
2018-12-14T12:49:28.294Z,10.03
2018-12-14T12:51:55.490Z,11.47
2018-12-14T12:54:22.620Z,11.03
2018-12-14T12:56:51.382Z,11.00
2018-12-14T12:59:18.497Z,9.70
2018-12-14T13:01:45.685Z,10.07
2018-12-14T13:04:13.696Z,9.43
2018-12-14T13:06:41.298Z,10.70
2018-12-14T13:09:08.641Z,11.30
2018-12-14T13:11:35.843Z,10.00
2018-12-14T13:14:02.934Z,10.23
2018-12-14T13:16:30.043Z,9.67
2018-12-14T13:18:57.169Z,10.20
2018-12-14T13:21:24.320Z,10.57
2018-12-14T13:23:51.437Z,10.80
2018-12-14T13:26:18.555Z,10.30
2018-12-14T13:28:45.722Z,10.20
2018-12-14T13:31:12.899Z,9.80
2018-12-14T13:33:40.267Z,5.83
2018-12-14T13:36:07.455Z,10.00
2018-12-14T13:38:34.687Z,9.80
2018-12-14T13:41:01.868Z,9.23
2018-12-14T13:43:29.140Z,10.20
2018-12-14T13:45:56.497Z,9.90
2018-12-14T13:48:23.615Z,11.00
2018-12-14T13:50:50.804Z,9.40
2018-12-14T13:53:18.144Z,9.53
2018-12-14T13:55:45.280Z,9.60
2018-12-14T13:58:12.421Z,9.60
2018-12-14T14:00:39.907Z,11.40
2018-12-14T14:03:07.422Z,9.67
2018-12-14T14:05:34.726Z,8.77
2018-12-14T14:08:01.823Z,9.40
2018-12-14T14:10:29.797Z,9.20
2018-12-14T14:12:56.934Z,9.60
2018-12-14T14:15:24.191Z,9.60
2018-12-14T14:17:51.947Z,10.30
2018-12-14T14:20:19.076Z,10.03
2018-12-14T14:22:46.280Z,10.43
2018-12-14T14:25:17.411Z,10.00
2018-12-14T14:27:42.699Z,10.10
2018-12-14T14:30:10.614Z,9.73
2018-12-14T14:32:37.792Z,9.87
2018-12-14T14:35:05.919Z,11.50
2018-12-14T14:37:33.148Z,9.50
2018-12-14T14:40:00.451Z,10.37
2018-12-14T14:42:27.608Z,10.10
2018-12-14T14:44:59.713Z,11.83
2018-12-14T14:47:25.376Z,9.60
2018-12-14T14:49:52.525Z,9.80
2018-12-14T14:52:19.773Z,10.50
2018-12-14T14:54:47.133Z,10.83
2018-12-14T14:57:15.467Z,9.00
2018-12-14T14:59:42.622Z,9.30
2018-12-14T15:02:10.399Z,9.60
2018-12-14T15:04:37.696Z,8.50
2018-12-14T15:07:04.911Z,9.30
2018-12-14T15:09:32.093Z,9.60
2018-12-14T15:11:59.308Z,9.57
2018-12-14T15:14:27.426Z,9.10
2018-12-14T15:16:54.830Z,9.53
2018-12-14T15:19:21.973Z,10.20
2018-12-14T15:21:49.961Z,9.50
2018-12-14T15:24:17.103Z,9.90
2018-12-14T15:26:45.156Z,9.43
2018-12-14T15:29:12.273Z,10.33
2018-12-14T15:31:40.377Z,10.40
2018-12-14T15:34:14.165Z,9.80
2018-12-14T15:36:36.898Z,11.37
2018-12-14T15:39:04.489Z,10.13
2018-12-14T15:41:31.609Z,10.60
2018-12-14T15:43:58.749Z,9.77
2018-12-14T15:46:26.015Z,10.20
2018-12-14T15:48:53.412Z,10.07
2018-12-14T15:51:22.153Z,8.37
2018-12-14T15:53:49.378Z,9.63
2018-12-14T15:56:16.484Z,10.60
2018-12-14T15:58:43.782Z,8.63
2018-12-14T16:01:10.896Z,10.60
2018-12-14T16:03:38.044Z,9.87
2018-12-14T16:06:05.347Z,9.57
2018-12-14T16:08:33.436Z,10.13
2018-12-14T16:11:00.553Z,9.93
2018-12-14T16:13:27.736Z,9.90
2018-12-14T16:15:54.947Z,10.47
2018-12-14T16:18:22.235Z,10.70
2018-12-14T16:20:49.320Z,10.43
2018-12-14T16:23:16.474Z,9.80
2018-12-14T16:25:43.778Z,9.70
2018-12-14T16:28:11.104Z,10.67
2018-12-14T16:30:38.281Z,10.20
2018-12-14T16:33:05.686Z,10.07
2018-12-14T16:35:32.861Z,10.30
2018-12-14T16:37:59.945Z,11.30
2018-12-14T16:40:27.191Z,10.70
2018-12-14T16:42:54.277Z,10.30
2018-12-14T16:45:26.476Z,10.07
2018-12-14T16:47:51.587Z,10.60
2018-12-14T16:50:18.801Z,11.07
2018-12-14T16:52:45.955Z,11.03
2018-12-14T16:55:13.163Z,10.27
2018-12-14T16:57:40.307Z,11.30
2018-12-14T17:00:09.882Z,9.80
2018-12-14T17:02:36.976Z,9.60
2018-12-14T17:05:04.072Z,10.17
2018-12-14T17:07:31.256Z,10.50
2018-12-14T17:09:58.428Z,9.93
2018-12-14T17:12:25.641Z,10.17
2018-12-14T17:14:52.771Z,10.33
2018-12-14T17:17:20.552Z,11.60
2018-12-14T17:19:47.793Z,10.50
2018-12-14T17:22:15.073Z,8.43
2018-12-14T17:24:42.471Z,9.67
2018-12-14T17:27:09.872Z,9.67
2018-12-14T17:29:37.000Z,11.23
2018-12-14T17:32:04.302Z,10.60
2018-12-14T17:34:31.491Z,9.50
2018-12-14T17:36:58.739Z,9.50
2018-12-14T17:39:25.964Z,10.47
2018-12-14T17:41:54.234Z,10.33
2018-12-14T17:46:59.743Z,10.30
2018-12-14T17:49:26.933Z,10.17
2018-12-14T17:51:54.166Z,9.30
2018-12-14T17:54:21.653Z,10.30
2018-12-14T17:56:48.865Z,10.77
2018-12-14T17:59:15.981Z,9.77
2018-12-14T18:01:43.278Z,10.87
2018-12-14T18:04:10.448Z,9.60
2018-12-14T18:06:37.552Z,10.30
2018-12-14T18:09:05.216Z,10.57
2018-12-14T18:11:32.355Z,10.57
2018-12-14T18:13:59.555Z,10.07
2018-12-14T18:16:27.217Z,10.97
2018-12-14T18:18:54.469Z,9.83
2018-12-14T18:21:21.610Z,9.73
2018-12-14T18:23:48.896Z,10.40
2018-12-14T18:26:16.085Z,10.30
2018-12-14T18:28:43.348Z,10.07
2018-12-14T18:31:10.491Z,11.17
2018-12-14T18:33:37.680Z,11.07
2018-12-14T18:36:05.673Z,10.10
2018-12-14T18:38:32.986Z,10.90
2018-12-14T18:41:00.157Z,9.90
2018-12-14T18:43:27.311Z,9.60
2018-12-14T18:45:54.618Z,10.57
2018-12-14T18:48:22.657Z,10.43
2018-12-14T18:50:50.003Z,9.53
2018-12-14T18:53:17.532Z,10.30
2018-12-14T18:55:45.403Z,9.27
2018-12-14T18:58:13.172Z,10.47
2018-12-14T19:00:40.329Z,9.87
2018-12-14T19:03:07.489Z,10.80
2018-12-14T19:05:35.653Z,9.47
2018-12-14T19:08:02.753Z,8.63
2018-12-14T19:10:29.956Z,9.30
2018-12-14T19:12:57.160Z,9.20
2018-12-14T19:15:24.519Z,9.63
2018-12-14T19:17:51.682Z,10.07
2018-12-14T19:20:19.547Z,9.20
2018-12-14T19:22:46.816Z,9.90
2018-12-14T19:25:14.107Z,11.07
2018-12-14T19:27:41.308Z,10.53
2018-12-14T19:30:08.422Z,9.37
2018-12-14T19:32:35.573Z,10.50
2018-12-14T19:35:03.165Z,10.40
2018-12-14T19:37:30.282Z,10.83
2018-12-14T19:39:57.651Z,10.83
2018-12-14T19:42:24.889Z,12.63
2018-12-14T19:44:52.002Z,9.87
2018-12-14T19:47:19.908Z,9.53
2018-12-14T19:49:47.191Z,9.47
2018-12-14T19:52:15.138Z,8.53
2018-12-14T19:54:42.421Z,8.53
2018-12-14T19:57:09.745Z,9.70
2018-12-14T19:59:36.881Z,8.50
2018-12-14T20:02:04.029Z,9.40
2018-12-14T20:04:32.052Z,9.33
2018-12-14T20:06:59.933Z,8.90
2018-12-14T20:09:28.089Z,8.70
2018-12-14T20:11:55.357Z,8.50
2018-12-14T20:14:22.684Z,8.30
2018-12-14T20:16:49.873Z,8.60
2018-12-14T20:19:17.156Z,9.37
2018-12-14T20:21:44.277Z,8.40
2018-12-14T20:24:11.401Z,9.40
2018-12-14T20:26:38.577Z,9.50
2018-12-14T20:29:06.144Z,9.33
2018-12-14T20:31:33.227Z,9.07
2018-12-14T20:34:00.407Z,9.03
2018-12-14T20:36:27.499Z,9.30
2018-12-14T20:38:54.705Z,8.97
2018-12-14T20:41:21.778Z,9.60
2018-12-14T20:43:48.943Z,8.80
2018-12-14T20:46:19.365Z,8.00
2018-12-14T20:48:45.999Z,9.20
2018-12-14T20:51:14.260Z,9.43
2018-12-14T20:53:41.826Z,9.33
2018-12-14T20:56:08.923Z,9.23
2018-12-14T20:58:36.884Z,9.43
2018-12-14T21:01:04.812Z,9.63
2018-12-14T21:03:31.984Z,9.00
2018-12-14T21:05:59.305Z,8.90
2018-12-14T21:08:27.189Z,9.30
2018-12-14T21:10:54.484Z,10.43
2018-12-14T21:13:21.581Z,10.60
2018-12-14T21:15:49.175Z,12.13
2018-12-14T21:18:16.360Z,9.30
2018-12-14T21:20:43.472Z,9.87
2018-12-14T21:23:11.040Z,9.50
2018-12-14T21:25:38.184Z,10.10
2018-12-14T21:28:05.840Z,9.30
2018-12-14T21:30:33.299Z,9.77
2018-12-14T21:33:00.487Z,9.43
2018-12-14T21:35:27.679Z,10.27
2018-12-14T21:37:55.089Z,8.77
2018-12-14T21:40:22.210Z,9.87
2018-12-14T21:42:49.464Z,9.33
2018-12-14T21:45:16.610Z,9.30
2018-12-14T21:47:43.797Z,9.90
2018-12-14T21:50:10.979Z,9.70
2018-12-14T21:52:38.352Z,9.83
2018-12-14T21:55:06.038Z,8.70
2018-12-14T21:57:33.277Z,9.20
2018-12-14T22:00:00.427Z,8.77
2018-12-14T22:02:28.165Z,8.73
2018-12-14T22:04:55.600Z,9.67
2018-12-14T22:07:22.864Z,9.03
2018-12-14T22:09:50.091Z,9.13
2018-12-14T22:12:17.271Z,8.73
2018-12-14T22:14:44.436Z,8.87
2018-12-14T22:17:11.553Z,8.70
2018-12-14T22:19:38.708Z,8.50
2018-12-14T22:22:05.812Z,8.77
2018-12-14T22:24:32.944Z,9.10
2018-12-14T22:27:01.482Z,8.23
2018-12-14T22:29:29.940Z,8.30
2018-12-14T22:31:58.500Z,9.70
2018-12-14T22:34:26.159Z,10.83
2018-12-14T22:36:54.796Z,10.20
2018-12-14T22:39:23.702Z,9.47
2018-12-14T22:41:50.993Z,10.40
2018-12-14T22:44:21.389Z,9.00
2018-12-14T22:46:52.287Z,10.57
2018-12-14T22:49:19.399Z,9.17
2018-12-14T22:51:46.778Z,8.30
2018-12-14T22:54:14.158Z,8.83
2018-12-14T22:56:41.328Z,9.40
2018-12-14T22:59:08.511Z,8.57
2018-12-14T23:01:36.432Z,10.20
2018-12-14T23:04:03.972Z,8.87
2018-12-14T23:06:31.234Z,9.37
2018-12-14T23:08:58.385Z,9.90
2018-12-14T23:11:26.527Z,9.90
2018-12-14T23:13:53.864Z,9.20
2018-12-14T23:16:22.177Z,10.03
2018-12-14T23:18:49.873Z,9.67
2018-12-14T23:21:16.987Z,8.20
2018-12-14T23:23:44.264Z,9.30
2018-12-14T23:26:11.439Z,9.53
2018-12-14T23:28:38.895Z,10.10
2018-12-14T23:31:06.217Z,9.57
2018-12-14T23:33:33.584Z,10.83
2018-12-14T23:36:01.056Z,9.70
2018-12-14T23:38:28.187Z,10.03
2018-12-14T23:40:56.740Z,9.87
2018-12-14T23:43:23.919Z,8.53
2018-12-14T23:45:51.736Z,8.90
2018-12-14T23:48:21.488Z,9.60
2018-12-14T23:50:49.428Z,10.37
2018-12-14T23:53:16.584Z,8.67
2018-12-14T23:55:43.742Z,9.57
2018-12-14T23:58:10.917Z,9.00
